Terminal Aerodrome Forecast
Issued by NWS Bismarck, ND

Home | Current Version | Previous Version | Text Only | Print | Product List | Glossary On
Versions: 1 2 3 4 5 6 7 8 9 10 11 12 13 14
000
FTUS43 KBIS 211700
TAFISN
TAF
KISN 211730Z 2118/2218 15011KT P6SM SKC
     FM220400 21005KT P6SM SCT150
     FM220700 27009KT P6SM SCT110=

USA.gov is the U.S. government's official web portal to all federal, state and local government web resources and services.